Fort Benjamin Harrison, Indiana
Current Conditions -  °F | °C
As of 3:15 PM on Saturday 25 Oct 2014 (Local Time) from KMQJ Reporting Station
Clear Clear  
Wind Chill: 75°   Ceiling: Unl
Heat Index: 75°   Visibility: 10mi
Dew Point: 37°   Wind: 13mph
Humidity: 25%   Direction: 270°W
Pressure: 29.93"   Gusts: 18mph
Location:  39.8642°N, 86.0139°W
Report Text: KMQJ 251915Z AUTO 27011G16KT 10SM CLR 24/03 A2993 RMK AO1
Loading
Personal Weather Stations






























Interactive Weather Map
Tropical Storm Tracking
New forecast layout! Learn more

10-Day Weather Forecast

Advertisements
Track Severe Weather on mobile